sensor_id;sensor_type;location;lat;lon;timestamp;pressure;altitude;pressure_sealevel;temperature
67501;BMP180;54349;52.528;19.760;2022-09-17T00:01:38;99250.80;;;22.20
67501;BMP180;54349;52.528;19.760;2022-09-17T00:04:09;99248.20;;;22.20
67501;BMP180;54349;52.528;19.760;2022-09-17T00:06:37;99247.80;;;22.20
67501;BMP180;54349;52.528;19.760;2022-09-17T00:09:06;99244.00;;;22.28
67501;BMP180;54349;52.528;19.760;2022-09-17T00:11:38;99247.60;;;22.30
67501;BMP180;54349;52.528;19.760;2022-09-17T00:14:13;99242.20;;;22.30
67501;BMP180;54349;52.528;19.760;2022-09-17T00:16:45;99248.20;;;22.30
67501;BMP180;54349;52.528;19.760;2022-09-17T00:19:18;99249.00;;;22.30
67501;BMP180;54349;52.528;19.760;2022-09-17T00:21:48;99251.20;;;22.30
67501;BMP180;54349;52.528;19.760;2022-09-17T00:24:18;99247.40;;;22.30
67501;BMP180;54349;52.528;19.760;2022-09-17T00:26:49;99251.40;;;22.00
67501;BMP180;54349;52.528;19.760;2022-09-17T00:29:17;99249.80;;;22.00
67501;BMP180;54349;52.528;19.760;2022-09-17T00:31:45;99253.80;;;22.00
67501;BMP180;54349;52.528;19.760;2022-09-17T00:34:13;99252.00;;;22.00
67501;BMP180;54349;52.528;19.760;2022-09-17T00:36:41;99254.60;;;22.10
67501;BMP180;54349;52.528;19.760;2022-09-17T00:39:11;99253.00;;;22.10
67501;BMP180;54349;52.528;19.760;2022-09-17T00:41:39;99255.80;;;22.10
67501;BMP180;54349;52.528;19.760;2022-09-17T00:50:29;99246.40;;;22.10
67501;BMP180;54349;52.528;19.760;2022-09-17T00:55:45;99249.00;;;22.18
67501;BMP180;54349;52.528;19.760;2022-09-17T00:58:20;99244.40;;;22.20
67501;BMP180;54349;52.528;19.760;2022-09-17T01:00:49;99250.00;;;22.20
67501;BMP180;54349;52.528;19.760;2022-09-17T01:03:17;99247.80;;;22.20
67501;BMP180;54349;52.528;19.760;2022-09-17T01:50:17;99242.60;;;22.00
67501;BMP180;54349;52.528;19.760;2022-09-17T01:52:49;99241.00;;;22.00
67501;BMP180;54349;52.528;19.760;2022-09-17T01:55:27;99242.00;;;22.00
67501;BMP180;54349;52.528;19.760;2022-09-17T01:58:13;99241.80;;;22.00
67501;BMP180;54349;52.528;19.760;2022-09-17T02:00:52;99245.80;;;22.00
67501;BMP180;54349;52.528;19.760;2022-09-17T02:04:05;99245.20;;;22.00
67501;BMP180;54349;52.528;19.760;2022-09-17T02:06:42;99244.20;;;21.98
67501;BMP180;54349;52.528;19.760;2022-09-17T02:09:17;99244.60;;;21.70
67501;BMP180;54349;52.528;19.760;2022-09-17T02:11:56;99252.40;;;21.70
67501;BMP180;54349;52.528;19.760;2022-09-17T02:14:49;99248.80;;;21.70
67501;BMP180;54349;52.528;19.760;2022-09-17T02:17:36;99249.80;;;21.70
67501;BMP180;54349;52.528;19.760;2022-09-17T02:20:06;99250.00;;;21.70
67501;BMP180;54349;52.528;19.760;2022-09-17T02:22:47;99249.00;;;21.70
67501;BMP180;54349;52.528;19.760;2022-09-17T02:25:35;99246.20;;;21.70
67501;BMP180;54349;52.528;19.760;2022-09-17T02:30:42;99249.60;;;21.70
67501;BMP180;54349;52.528;19.760;2022-09-17T02:33:13;99249.40;;;21.70
67501;BMP180;54349;52.528;19.760;2022-09-17T02:35:42;99249.00;;;21.74
67501;BMP180;54349;52.528;19.760;2022-09-17T02:38:22;99247.80;;;21.78
67501;BMP180;54349;52.528;19.760;2022-09-17T02:41:03;99252.00;;;21.80
67501;BMP180;54349;52.528;19.760;2022-09-17T02:55:32;99250.00;;;21.80
67501;BMP180;54349;52.528;19.760;2022-09-17T02:58:37;99249.20;;;21.80
67501;BMP180;54349;52.528;19.760;2022-09-17T03:01:21;99244.80;;;21.80
67501;BMP180;54349;52.528;19.760;2022-09-17T03:03:53;99237.80;;;21.78
67501;BMP180;54349;52.528;19.760;2022-09-17T03:06:23;99240.40;;;21.80
67501;BMP180;54349;52.528;19.760;2022-09-17T03:08:51;99241.40;;;21.76
67501;BMP180;54349;52.528;19.760;2022-09-17T03:11:19;99240.20;;;21.78
67501;BMP180;54349;52.528;19.760;2022-09-17T03:13:48;99250.20;;;21.74
67501;BMP180;54349;52.528;19.760;2022-09-17T03:16:16;99253.20;;;21.76
67501;BMP180;54349;52.528;19.760;2022-09-17T03:18:44;99249.00;;;21.72
67501;BMP180;54349;52.528;19.760;2022-09-17T03:21:12;99249.20;;;21.76
67501;BMP180;54349;52.528;19.760;2022-09-17T03:23:41;99245.80;;;21.72
67501;BMP180;54349;52.528;19.760;2022-09-17T03:26:09;99248.00;;;21.72
67501;BMP180;54349;52.528;19.760;2022-09-17T03:28:37;99238.00;;;21.50
67501;BMP180;54349;52.528;19.760;2022-09-17T03:31:06;99238.00;;;21.50
67501;BMP180;54349;52.528;19.760;2022-09-17T03:33:34;99236.80;;;21.50
67501;BMP180;54349;52.528;19.760;2022-09-17T03:36:02;99233.40;;;21.50
67501;BMP180;54349;52.528;19.760;2022-09-17T03:38:30;99233.40;;;21.50
67501;BMP180;54349;52.528;19.760;2022-09-17T03:41:05;99237.40;;;21.50
67501;BMP180;54349;52.528;19.760;2022-09-17T03:43:34;99234.60;;;21.50
67501;BMP180;54349;52.528;19.760;2022-09-17T03:46:02;99237.40;;;21.50
67501;BMP180;54349;52.528;19.760;2022-09-17T03:48:31;99236.80;;;21.50
67501;BMP180;54349;52.528;19.760;2022-09-17T03:51:02;99231.80;;;21.50
67501;BMP180;54349;52.528;19.760;2022-09-17T03:53:32;99233.60;;;21.50
67501;BMP180;54349;52.528;19.760;2022-09-17T03:56:03;99235.60;;;21.50
67501;BMP180;54349;52.528;19.760;2022-09-17T03:58:32;99235.00;;;21.50
67501;BMP180;54349;52.528;19.760;2022-09-17T04:01:01;99238.40;;;21.50
67501;BMP180;54349;52.528;19.760;2022-09-17T04:03:31;99239.20;;;21.50
67501;BMP180;54349;52.528;19.760;2022-09-17T04:05:59;99239.40;;;21.50
67501;BMP180;54349;52.528;19.760;2022-09-17T04:08:27;99242.00;;;21.50
67501;BMP180;54349;52.528;19.760;2022-09-17T04:10:55;99238.40;;;21.52
67501;BMP180;54349;52.528;19.760;2022-09-17T04:13:23;99239.00;;;21.50
67501;BMP180;54349;52.528;19.760;2022-09-17T04:15:51;99237.60;;;21.50
67501;BMP180;54349;52.528;19.760;2022-09-17T04:18:19;99239.20;;;21.50
67501;BMP180;54349;52.528;19.760;2022-09-17T04:20:47;99236.60;;;21.50
67501;BMP180;54349;52.528;19.760;2022-09-17T04:23:15;99231.80;;;21.50
67501;BMP180;54349;52.528;19.760;2022-09-17T04:25:44;99228.40;;;21.50
67501;BMP180;54349;52.528;19.760;2022-09-17T04:28:12;99228.40;;;21.50
67501;BMP180;54349;52.528;19.760;2022-09-17T04:30:40;99229.20;;;21.50
67501;BMP180;54349;52.528;19.760;2022-09-17T04:33:10;99231.60;;;21.50
67501;BMP180;54349;52.528;19.760;2022-09-17T04:35:38;99230.00;;;21.50
67501;BMP180;54349;52.528;19.760;2022-09-17T04:38:06;99230.60;;;21.50
67501;BMP180;54349;52.528;19.760;2022-09-17T04:40:34;99234.40;;;21.50
67501;BMP180;54349;52.528;19.760;2022-09-17T04:43:02;99234.60;;;21.50
67501;BMP180;54349;52.528;19.760;2022-09-17T04:45:30;99233.20;;;21.50
67501;BMP180;54349;52.528;19.760;2022-09-17T04:48:01;99233.80;;;21.50
67501;BMP180;54349;52.528;19.760;2022-09-17T04:50:30;99234.60;;;21.50
67501;BMP180;54349;52.528;19.760;2022-09-17T04:52:58;99233.80;;;21.50
67501;BMP180;54349;52.528;19.760;2022-09-17T04:55:26;99237.00;;;21.50
67501;BMP180;54349;52.528;19.760;2022-09-17T04:57:54;99239.40;;;21.50
67501;BMP180;54349;52.528;19.760;2022-09-17T05:00:23;99236.60;;;21.50
67501;BMP180;54349;52.528;19.760;2022-09-17T05:02:53;99234.60;;;21.50
67501;BMP180;54349;52.528;19.760;2022-09-17T05:05:22;99228.20;;;21.50
67501;BMP180;54349;52.528;19.760;2022-09-17T05:07:51;99235.20;;;21.50
67501;BMP180;54349;52.528;19.760;2022-09-17T05:10:21;99234.00;;;21.50
67501;BMP180;54349;52.528;19.760;2022-09-17T05:12:52;99234.80;;;21.50
67501;BMP180;54349;52.528;19.760;2022-09-17T05:15:23;99232.00;;;21.50
67501;BMP180;54349;52.528;19.760;2022-09-17T05:17:51;99235.20;;;21.50
67501;BMP180;54349;52.528;19.760;2022-09-17T05:20:19;99236.20;;;21.50
67501;BMP180;54349;52.528;19.760;2022-09-17T05:22:51;99233.40;;;21.50
67501;BMP180;54349;52.528;19.760;2022-09-17T05:25:21;99236.20;;;21.50
67501;BMP180;54349;52.528;19.760;2022-09-17T05:27:53;99237.40;;;21.30
67501;BMP180;54349;52.528;19.760;2022-09-17T05:30:22;99246.00;;;21.30
67501;BMP180;54349;52.528;19.760;2022-09-17T05:33:02;99248.80;;;21.30
67501;BMP180;54349;52.528;19.760;2022-09-17T05:35:32;99245.40;;;21.30
67501;BMP180;54349;52.528;19.760;2022-09-17T05:38:04;99243.00;;;21.30
67501;BMP180;54349;52.528;19.760;2022-09-17T05:40:32;99243.00;;;21.30
67501;BMP180;54349;52.528;19.760;2022-09-17T05:43:03;99245.60;;;21.30
67501;BMP180;54349;52.528;19.760;2022-09-17T05:45:34;99246.80;;;21.30
67501;BMP180;54349;52.528;19.760;2022-09-17T05:48:05;99250.40;;;21.30
67501;BMP180;54349;52.528;19.760;2022-09-17T05:50:33;99252.20;;;21.30
67501;BMP180;54349;52.528;19.760;2022-09-17T05:53:11;99251.00;;;21.30
67501;BMP180;54349;52.528;19.760;2022-09-17T05:55:39;99249.40;;;21.36
67501;BMP180;54349;52.528;19.760;2022-09-17T05:58:18;99252.60;;;21.38
67501;BMP180;54349;52.528;19.760;2022-09-17T06:00:46;99252.60;;;21.38
67501;BMP180;54349;52.528;19.760;2022-09-17T06:03:18;99251.60;;;21.40
67501;BMP180;54349;52.528;19.760;2022-09-17T06:05:54;99250.80;;;21.40
67501;BMP180;54349;52.528;19.760;2022-09-17T06:08:24;99249.60;;;21.40
67501;BMP180;54349;52.528;19.760;2022-09-17T06:10:53;99250.40;;;21.40
67501;BMP180;54349;52.528;19.760;2022-09-17T06:13:27;99250.40;;;21.40
67501;BMP180;54349;52.528;19.760;2022-09-17T06:15:55;99248.60;;;21.40
67501;BMP180;54349;52.528;19.760;2022-09-17T06:18:23;99250.20;;;21.40
67501;BMP180;54349;52.528;19.760;2022-09-17T06:20:56;99247.40;;;21.40
67501;BMP180;54349;52.528;19.760;2022-09-17T06:23:26;99251.00;;;21.40
67501;BMP180;54349;52.528;19.760;2022-09-17T06:25:57;99251.40;;;21.40
67501;BMP180;54349;52.528;19.760;2022-09-17T06:28:27;99255.60;;;21.42
67501;BMP180;54349;52.528;19.760;2022-09-17T06:31:05;99254.20;;;21.46
67501;BMP180;54349;52.528;19.760;2022-09-17T06:33:34;99254.20;;;21.50
67501;BMP180;54349;52.528;19.760;2022-09-17T06:36:09;99255.60;;;21.50
67501;BMP180;54349;52.528;19.760;2022-09-17T06:38:42;99255.20;;;21.50
67501;BMP180;54349;52.528;19.760;2022-09-17T06:41:10;99255.40;;;21.50
67501;BMP180;54349;52.528;19.760;2022-09-17T06:43:39;99256.20;;;21.50
67501;BMP180;54349;52.528;19.760;2022-09-17T06:46:09;99254.40;;;21.50
67501;BMP180;54349;52.528;19.760;2022-09-17T06:48:38;99255.60;;;21.50
67501;BMP180;54349;52.528;19.760;2022-09-17T06:51:09;99253.40;;;21.50
67501;BMP180;54349;52.528;19.760;2022-09-17T06:53:39;99249.80;;;21.50
67501;BMP180;54349;52.528;19.760;2022-09-17T06:56:08;99246.00;;;21.50
67501;BMP180;54349;52.528;19.760;2022-09-17T06:58:37;99242.40;;;21.50
67501;BMP180;54349;52.528;19.760;2022-09-17T07:01:12;99243.00;;;21.54
67501;BMP180;54349;52.528;19.760;2022-09-17T07:03:42;99243.40;;;21.60
67501;BMP180;54349;52.528;19.760;2022-09-17T07:06:10;99238.20;;;21.60
67501;BMP180;54349;52.528;19.760;2022-09-17T07:08:40;99240.20;;;21.60
67501;BMP180;54349;52.528;19.760;2022-09-17T07:11:08;99241.20;;;21.60
67501;BMP180;54349;52.528;19.760;2022-09-17T07:13:36;99244.00;;;21.60
67501;BMP180;54349;52.528;19.760;2022-09-17T07:16:06;99237.00;;;21.50
67501;BMP180;54349;52.528;19.760;2022-09-17T07:18:35;99243.60;;;21.40
67501;BMP180;54349;52.528;19.760;2022-09-17T07:21:05;99249.40;;;21.46
67501;BMP180;54349;52.528;19.760;2022-09-17T07:23:36;99249.40;;;21.50
67501;BMP180;54349;52.528;19.760;2022-09-17T07:26:13;99252.80;;;21.50
67501;BMP180;54349;52.528;19.760;2022-09-17T07:28:42;99256.00;;;21.50
67501;BMP180;54349;52.528;19.760;2022-09-17T07:31:12;99258.80;;;21.58
67501;BMP180;54349;52.528;19.760;2022-09-17T07:33:43;99259.40;;;21.60
67501;BMP180;54349;52.528;19.760;2022-09-17T07:36:14;99259.80;;;21.60
67501;BMP180;54349;52.528;19.760;2022-09-17T07:38:45;99260.20;;;21.60
67501;BMP180;54349;52.528;19.760;2022-09-17T07:41:16;99263.00;;;21.60
67501;BMP180;54349;52.528;19.760;2022-09-17T07:43:45;99271.00;;;21.60
67501;BMP180;54349;52.528;19.760;2022-09-17T07:46:18;99275.60;;;21.68
67501;BMP180;54349;52.528;19.760;2022-09-17T07:48:48;99283.60;;;21.70
67501;BMP180;54349;52.528;19.760;2022-09-17T07:51:23;99281.40;;;21.70
67501;BMP180;54349;52.528;19.760;2022-09-17T07:53:57;99282.80;;;21.70
67501;BMP180;54349;52.528;19.760;2022-09-17T07:56:26;99283.00;;;21.70
67501;BMP180;54349;52.528;19.760;2022-09-17T07:58:55;99289.00;;;21.70
67501;BMP180;54349;52.528;19.760;2022-09-17T08:01:23;99286.40;;;21.70
67501;BMP180;54349;52.528;19.760;2022-09-17T08:03:53;99283.40;;;21.70
67501;BMP180;54349;52.528;19.760;2022-09-17T08:06:24;99285.00;;;21.74
67501;BMP180;54349;52.528;19.760;2022-09-17T08:08:57;99283.40;;;21.80
67501;BMP180;54349;52.528;19.760;2022-09-17T08:11:29;99283.40;;;21.80
67501;BMP180;54349;52.528;19.760;2022-09-17T08:14:18;99291.80;;;21.80
67501;BMP180;54349;52.528;19.760;2022-09-17T08:16:46;99288.40;;;21.80
67501;BMP180;54349;52.528;19.760;2022-09-17T08:19:14;99286.80;;;21.80
67501;BMP180;54349;52.528;19.760;2022-09-17T08:21:45;99286.60;;;21.80
67501;BMP180;54349;52.528;19.760;2022-09-17T08:24:13;99282.60;;;21.70
67501;BMP180;54349;52.528;19.760;2022-09-17T08:26:41;99277.60;;;21.60
67501;BMP180;54349;52.528;19.760;2022-09-17T08:29:09;99275.80;;;21.60
67501;BMP180;54349;52.528;19.760;2022-09-17T08:31:38;99276.40;;;21.60
67501;BMP180;54349;52.528;19.760;2022-09-17T08:34:08;99281.40;;;21.60
67501;BMP180;54349;52.528;19.760;2022-09-17T08:36:36;99288.20;;;21.64
67501;BMP180;54349;52.528;19.760;2022-09-17T08:39:05;99281.80;;;21.66
67501;BMP180;54349;52.528;19.760;2022-09-17T08:42:04;99291.60;;;21.70
67501;BMP180;54349;52.528;19.760;2022-09-17T08:44:43;99286.80;;;21.70
67501;BMP180;54349;52.528;19.760;2022-09-17T08:47:34;99283.80;;;21.70
67501;BMP180;54349;52.528;19.760;2022-09-17T08:50:21;99285.20;;;21.70
67501;BMP180;54349;52.528;19.760;2022-09-17T08:53:39;99284.40;;;21.70
67501;BMP180;54349;52.528;19.760;2022-09-17T08:56:15;99290.00;;;21.70
67501;BMP180;54349;52.528;19.760;2022-09-17T09:01:50;99300.80;;;21.80
67501;BMP180;54349;52.528;19.760;2022-09-17T09:07:29;99309.60;;;21.80
67501;BMP180;54349;52.528;19.760;2022-09-17T09:10:26;99310.40;;;21.80
67501;BMP180;54349;52.528;19.760;2022-09-17T09:12:59;99316.20;;;21.80
67501;BMP180;54349;52.528;19.760;2022-09-17T09:15:42;99321.60;;;21.80
67501;BMP180;54349;52.528;19.760;2022-09-17T09:18:26;99316.00;;;21.84
67501;BMP180;54349;52.528;19.760;2022-09-17T09:22:04;99316.40;;;21.88
67501;BMP180;54349;52.528;19.760;2022-09-17T09:26:48;99310.40;;;21.80
67501;BMP180;54349;52.528;19.760;2022-09-17T09:34:50;99310.20;;;21.70
67501;BMP180;54349;52.528;19.760;2022-09-17T09:37:26;99313.40;;;21.70
67501;BMP180;54349;52.528;19.760;2022-09-17T09:40:15;99315.40;;;21.74
67501;BMP180;54349;52.528;19.760;2022-09-17T09:42:46;99320.40;;;21.80
67501;BMP180;54349;52.528;19.760;2022-09-17T09:48:42;99323.00;;;21.80
67501;BMP180;54349;52.528;19.760;2022-09-17T09:56:59;99323.60;;;21.86
67501;BMP180;54349;52.528;19.760;2022-09-17T09:59:30;99326.00;;;21.90
67501;BMP180;54349;52.528;19.760;2022-09-17T10:01:58;99324.80;;;21.90
67501;BMP180;54349;52.528;19.760;2022-09-17T10:04:28;99324.60;;;21.90
67501;BMP180;54349;52.528;19.760;2022-09-17T10:07:08;99327.20;;;21.90
67501;BMP180;54349;52.528;19.760;2022-09-17T10:09:44;99330.00;;;21.90
67501;BMP180;54349;52.528;19.760;2022-09-17T10:12:15;99322.40;;;21.96
67501;BMP180;54349;52.528;19.760;2022-09-17T10:14:45;99324.60;;;22.00
67501;BMP180;54349;52.528;19.760;2022-09-17T10:17:25;99325.20;;;21.84
67501;BMP180;54349;52.528;19.760;2022-09-17T10:22:42;99329.00;;;21.80
67501;BMP180;54349;52.528;19.760;2022-09-17T10:25:32;99331.80;;;21.80
67501;BMP180;54349;52.528;19.760;2022-09-17T10:28:04;99334.00;;;21.80
67501;BMP180;54349;52.528;19.760;2022-09-17T10:31:03;99349.60;;;21.84
67501;BMP180;54349;52.528;19.760;2022-09-17T10:34:00;99345.80;;;21.90
67501;BMP180;54349;52.528;19.760;2022-09-17T10:36:44;99355.40;;;21.90
67501;BMP180;54349;52.528;19.760;2022-09-17T10:42:14;99367.00;;;21.98
67501;BMP180;54349;52.528;19.760;2022-09-17T10:44:53;99374.60;;;22.00
67501;BMP180;54349;52.528;19.760;2022-09-17T10:47:28;99375.60;;;22.00
67501;BMP180;54349;52.528;19.760;2022-09-17T10:50:05;99375.20;;;22.00
67501;BMP180;54349;52.528;19.760;2022-09-17T10:52:38;99370.60;;;22.10
67501;BMP180;54349;52.528;19.760;2022-09-17T10:55:36;99377.60;;;22.00
67501;BMP180;54349;52.528;19.760;2022-09-17T11:01:16;99389.00;;;21.90
67501;BMP180;54349;52.528;19.760;2022-09-17T11:07:24;99396.40;;;22.00
67501;BMP180;54349;52.528;19.760;2022-09-17T11:10:28;99396.80;;;22.10
67501;BMP180;54349;52.528;19.760;2022-09-17T11:18:29;99400.40;;;22.20
67501;BMP180;54349;52.528;19.760;2022-09-17T11:30:20;99406.00;;;22.02
67501;BMP180;54349;52.528;19.760;2022-09-17T11:35:56;99407.40;;;22.10
67501;BMP180;54349;52.528;19.760;2022-09-17T11:38:52;99412.40;;;22.20
67501;BMP180;54349;52.528;19.760;2022-09-17T11:41:30;99414.40;;;22.20
67501;BMP180;54349;52.528;19.760;2022-09-17T11:44:11;99414.00;;;22.24
67501;BMP180;54349;52.528;19.760;2022-09-17T11:46:47;99416.20;;;22.30
67501;BMP180;54349;52.528;19.760;2022-09-17T11:49:24;99420.20;;;22.30
67501;BMP180;54349;52.528;19.760;2022-09-17T11:52:03;99419.40;;;22.30
67501;BMP180;54349;52.528;19.760;2022-09-17T11:55:09;99420.60;;;22.20
67501;BMP180;54349;52.528;19.760;2022-09-17T11:57:44;99420.40;;;22.10
67501;BMP180;54349;52.528;19.760;2022-09-17T12:00:16;99418.40;;;22.20
67501;BMP180;54349;52.528;19.760;2022-09-17T12:03:15;99413.80;;;22.20
67501;BMP180;54349;52.528;19.760;2022-09-17T12:05:52;99416.20;;;22.20
67501;BMP180;54349;52.528;19.760;2022-09-17T12:08:46;99420.80;;;22.30
67501;BMP180;54349;52.528;19.760;2022-09-17T12:14:10;99414.00;;;22.30
67501;BMP180;54349;52.528;19.760;2022-09-17T12:16:45;99412.80;;;22.30
67501;BMP180;54349;52.528;19.760;2022-09-17T12:19:53;99409.80;;;22.40
67501;BMP180;54349;52.528;19.760;2022-09-17T12:22:30;99406.40;;;22.36
67501;BMP180;54349;52.528;19.760;2022-09-17T12:25:02;99402.80;;;22.20
67501;BMP180;54349;52.528;19.760;2022-09-17T12:27:58;99401.40;;;22.20
67501;BMP180;54349;52.528;19.760;2022-09-17T12:30:49;99397.80;;;22.20
67501;BMP180;54349;52.528;19.760;2022-09-17T12:33:38;99397.80;;;22.30
67501;BMP180;54349;52.528;19.760;2022-09-17T12:48:06;99367.00;;;22.40
67501;BMP180;54349;52.528;19.760;2022-09-17T12:53:29;99355.00;;;22.24
67501;BMP180;54349;52.528;19.760;2022-09-17T12:59:15;99349.40;;;22.38
67501;BMP180;54349;52.528;19.760;2022-09-17T13:02:19;99346.60;;;22.40
67501;BMP180;54349;52.528;19.760;2022-09-17T13:08:41;99330.80;;;22.50
67501;BMP180;54349;52.528;19.760;2022-09-17T13:14:19;99317.60;;;22.38
67501;BMP180;54349;52.528;19.760;2022-09-17T13:16:59;99319.00;;;22.40
67501;BMP180;54349;52.528;19.760;2022-09-17T13:22:50;99316.60;;;22.50
67501;BMP180;54349;52.528;19.760;2022-09-17T13:25:21;99317.60;;;22.50
67501;BMP180;54349;52.528;19.760;2022-09-17T13:28:03;99316.80;;;22.50
67501;BMP180;54349;52.528;19.760;2022-09-17T13:31:00;99322.60;;;22.60
67501;BMP180;54349;52.528;19.760;2022-09-17T13:33:48;99324.00;;;22.60
67501;BMP180;54349;52.528;19.760;2022-09-17T13:39:02;99327.60;;;22.40
67501;BMP180;54349;52.528;19.760;2022-09-17T13:41:36;99325.00;;;22.50
67501;BMP180;54349;52.528;19.760;2022-09-17T13:44:07;99326.00;;;22.50
67501;BMP180;54349;52.528;19.760;2022-09-17T13:46:37;99323.20;;;22.52
67501;BMP180;54349;52.528;19.760;2022-09-17T13:49:14;99312.20;;;22.60
67501;BMP180;54349;52.528;19.760;2022-09-17T13:51:45;99306.20;;;22.60
67501;BMP180;54349;52.528;19.760;2022-09-17T13:54:17;99305.40;;;22.60
67501;BMP180;54349;52.528;19.760;2022-09-17T13:57:07;99316.60;;;22.40
67501;BMP180;54349;52.528;19.760;2022-09-17T13:59:51;99315.00;;;22.50
67501;BMP180;54349;52.528;19.760;2022-09-17T14:05:33;99309.20;;;22.60
67501;BMP180;54349;52.528;19.760;2022-09-17T14:08:13;99314.40;;;22.60
67501;BMP180;54349;52.528;19.760;2022-09-17T14:10:50;99319.00;;;22.70
67501;BMP180;54349;52.528;19.760;2022-09-17T14:16:32;99314.00;;;22.50
67501;BMP180;54349;52.528;19.760;2022-09-17T14:24:28;99308.20;;;22.60
67501;BMP180;54349;52.528;19.760;2022-09-17T14:35:21;99310.60;;;22.60
67501;BMP180;54349;52.528;19.760;2022-09-17T14:37:59;99309.00;;;22.60
67501;BMP180;54349;52.528;19.760;2022-09-17T14:40:32;99306.60;;;22.60
67501;BMP180;54349;52.528;19.760;2022-09-17T14:43:02;99307.80;;;22.70
67501;BMP180;54349;52.528;19.760;2022-09-17T14:45:36;99303.80;;;22.72
67501;BMP180;54349;52.528;19.760;2022-09-17T14:48:33;99294.20;;;22.80
67501;BMP180;54349;52.528;19.760;2022-09-17T14:56:41;99296.40;;;22.70
67501;BMP180;54349;52.528;19.760;2022-09-17T14:59:53;99306.00;;;22.74
67501;BMP180;54349;52.528;19.760;2022-09-17T15:02:37;99306.60;;;22.80
67501;BMP180;54349;52.528;19.760;2022-09-17T15:05:35;99302.00;;;22.90
67501;BMP180;54349;52.528;19.760;2022-09-17T15:13:28;99292.20;;;22.70
67501;BMP180;54349;52.528;19.760;2022-09-17T15:16:26;99293.80;;;22.70
67501;BMP180;54349;52.528;19.760;2022-09-17T15:18:59;99291.40;;;22.80
67501;BMP180;54349;52.528;19.760;2022-09-17T15:24:47;99294.60;;;22.90
67501;BMP180;54349;52.528;19.760;2022-09-17T15:27:33;99288.00;;;22.80
67501;BMP180;54349;52.528;19.760;2022-09-17T15:32:47;99279.80;;;22.70
67501;BMP180;54349;52.528;19.760;2022-09-17T15:35:25;99276.80;;;22.80
67501;BMP180;54349;52.528;19.760;2022-09-17T15:38:02;99275.80;;;22.80
67501;BMP180;54349;52.528;19.760;2022-09-17T15:40:51;99277.80;;;22.90
67501;BMP180;54349;52.528;19.760;2022-09-17T15:43:29;99285.40;;;22.80
67501;BMP180;54349;52.528;19.760;2022-09-17T15:46:27;99285.00;;;22.70
67501;BMP180;54349;52.528;19.760;2022-09-17T15:49:29;99299.20;;;22.70
67501;BMP180;54349;52.528;19.760;2022-09-17T15:52:28;99306.00;;;22.80
67501;BMP180;54349;52.528;19.760;2022-09-17T15:54:59;99310.20;;;22.80
67501;BMP180;54349;52.528;19.760;2022-09-17T15:57:29;99309.00;;;22.84
67501;BMP180;54349;52.528;19.760;2022-09-17T16:00:11;99314.60;;;22.80
67501;BMP180;54349;52.528;19.760;2022-09-17T16:02:40;99316.80;;;22.64
67501;BMP180;54349;52.528;19.760;2022-09-17T16:07:44;99324.00;;;22.70
67501;BMP180;54349;52.528;19.760;2022-09-17T16:10:14;99321.20;;;22.80
67501;BMP180;54349;52.528;19.760;2022-09-17T16:12:42;99320.00;;;22.80
67501;BMP180;54349;52.528;19.760;2022-09-17T16:15:11;99312.20;;;22.80
67501;BMP180;54349;52.528;19.760;2022-09-17T16:20:23;99300.40;;;22.60
67501;BMP180;54349;52.528;19.760;2022-09-17T16:22:52;99304.80;;;22.70
67501;BMP180;54349;52.528;19.760;2022-09-17T16:25:24;99312.80;;;22.70
67501;BMP180;54349;52.528;19.760;2022-09-17T16:28:02;99315.60;;;22.80
67501;BMP180;54349;52.528;19.760;2022-09-17T16:30:31;99320.80;;;22.80
67501;BMP180;54349;52.528;19.760;2022-09-17T16:32:59;99331.80;;;22.80
67501;BMP180;54349;52.528;19.760;2022-09-17T16:35:30;99339.40;;;22.80
67501;BMP180;54349;52.528;19.760;2022-09-17T16:37:58;99343.00;;;22.60
67501;BMP180;54349;52.528;19.760;2022-09-17T16:40:26;99344.20;;;22.60
67501;BMP180;54349;52.528;19.760;2022-09-17T16:42:58;99344.60;;;22.70
67501;BMP180;54349;52.528;19.760;2022-09-17T16:45:29;99336.40;;;22.70
67501;BMP180;54349;52.528;19.760;2022-09-17T16:47:58;99328.80;;;22.72
67501;BMP180;54349;52.528;19.760;2022-09-17T16:50:28;99323.20;;;22.80
67501;BMP180;54349;52.528;19.760;2022-09-17T16:52:56;99326.20;;;22.80
67501;BMP180;54349;52.528;19.760;2022-09-17T16:55:31;99326.40;;;22.78
67501;BMP180;54349;52.528;19.760;2022-09-17T16:58:00;99330.40;;;22.60
67501;BMP180;54349;52.528;19.760;2022-09-17T17:00:28;99327.20;;;22.60
67501;BMP180;54349;52.528;19.760;2022-09-17T17:02:56;99324.00;;;22.60
67501;BMP180;54349;52.528;19.760;2022-09-17T17:05:26;99321.20;;;22.70
67501;BMP180;54349;52.528;19.760;2022-09-17T17:07:55;99325.60;;;22.70
67501;BMP180;54349;52.528;19.760;2022-09-17T17:10:24;99330.00;;;22.70
67501;BMP180;54349;52.528;19.760;2022-09-17T17:12:53;99326.60;;;22.80
67501;BMP180;54349;52.528;19.760;2022-09-17T17:15:22;99326.20;;;22.60
67501;BMP180;54349;52.528;19.760;2022-09-17T17:17:50;99330.00;;;22.50
67501;BMP180;54349;52.528;19.760;2022-09-17T17:20:18;99330.20;;;22.50
67501;BMP180;54349;52.528;19.760;2022-09-17T17:22:47;99333.60;;;22.60
67501;BMP180;54349;52.528;19.760;2022-09-17T17:25:17;99338.40;;;22.60
67501;BMP180;54349;52.528;19.760;2022-09-17T17:27:45;99341.20;;;22.68
67501;BMP180;54349;52.528;19.760;2022-09-17T17:30:13;99345.00;;;22.70
67501;BMP180;54349;52.528;19.760;2022-09-17T17:32:49;99348.20;;;22.70
67501;BMP180;54349;52.528;19.760;2022-09-17T17:35:19;99349.00;;;22.70
67501;BMP180;54349;52.528;19.760;2022-09-17T17:37:47;99341.20;;;22.50
67501;BMP180;54349;52.528;19.760;2022-09-17T17:40:16;99343.80;;;22.40
67501;BMP180;54349;52.528;19.760;2022-09-17T17:42:50;99340.80;;;22.50
67501;BMP180;54349;52.528;19.760;2022-09-17T17:45:18;99342.60;;;22.50
67501;BMP180;54349;52.528;19.760;2022-09-17T17:47:46;99347.20;;;22.60
67501;BMP180;54349;52.528;19.760;2022-09-17T17:50:14;99355.00;;;22.60
67501;BMP180;54349;52.528;19.760;2022-09-17T17:52:43;99350.80;;;22.60
67501;BMP180;54349;52.528;19.760;2022-09-17T17:55:15;99356.40;;;22.62